createdAt,value
2019-03-24T00:00:26.412Z,87.85
2019-03-24T00:02:57.827Z,87.62
2019-03-24T00:05:29.004Z,86.96
2019-03-24T00:08:00.378Z,87.15
2019-03-24T00:10:31.663Z,87.43
2019-03-24T00:13:02.975Z,87.65
2019-03-24T00:15:34.409Z,87.57
2019-03-24T00:18:05.843Z,87.47
2019-03-24T00:20:37.079Z,87.07
2019-03-24T00:23:08.493Z,86.70
2019-03-24T00:25:39.969Z,86.86
2019-03-24T00:28:11.240Z,86.87
2019-03-24T00:30:42.660Z,86.88
2019-03-24T00:33:14.048Z,87.24
2019-03-24T00:35:45.580Z,87.37
2019-03-24T00:38:16.951Z,87.54
2019-03-24T00:40:48.299Z,87.73
2019-03-24T00:43:19.605Z,87.80
2019-03-24T00:45:51.027Z,87.68
2019-03-24T00:48:22.317Z,87.57
2019-03-24T00:50:53.787Z,87.46
2019-03-24T00:53:25.157Z,87.37
2019-03-24T00:55:56.467Z,87.31
2019-03-24T00:58:27.739Z,87.47
2019-03-24T01:00:59.823Z,87.56
2019-03-24T01:03:31.169Z,87.36
2019-03-24T01:06:02.550Z,87.58
2019-03-24T01:08:33.770Z,87.73
2019-03-24T01:11:05.129Z,88.02
2019-03-24T01:13:36.419Z,88.26
2019-03-24T01:16:07.989Z,88.44
2019-03-24T01:18:39.513Z,88.61
2019-03-24T01:21:10.803Z,88.83
2019-03-24T01:23:42.082Z,89.20
2019-03-24T01:26:13.477Z,89.30
2019-03-24T01:28:44.775Z,89.19
2019-03-24T01:31:16.119Z,89.64
2019-03-24T01:33:48.284Z,89.46
2019-03-24T01:36:19.587Z,88.76
2019-03-24T01:38:50.778Z,88.18
2019-03-24T01:41:21.999Z,87.81
2019-03-24T01:43:53.363Z,87.31
2019-03-24T01:46:24.724Z,86.87
2019-03-24T01:48:56.659Z,86.31
2019-03-24T01:51:28.029Z,86.26
2019-03-24T01:53:59.304Z,86.24
2019-03-24T01:56:30.548Z,86.08
2019-03-24T01:59:01.746Z,86.35
2019-03-24T02:01:32.991Z,86.05
2019-03-24T02:04:04.209Z,85.75
2019-03-24T02:06:35.333Z,85.55
2019-03-24T02:09:09.144Z,85.48
2019-03-24T02:11:40.353Z,85.43
2019-03-24T02:14:11.615Z,85.22
2019-03-24T02:16:42.928Z,85.38
2019-03-24T02:19:14.091Z,85.10
2019-03-24T02:21:45.447Z,85.32
2019-03-24T02:24:16.768Z,85.60
2019-03-24T02:26:48.049Z,85.96
2019-03-24T02:29:19.398Z,85.74
2019-03-24T02:31:50.723Z,86.03
2019-03-24T02:34:22.114Z,85.86
2019-03-24T02:36:53.393Z,85.86
2019-03-24T02:39:24.787Z,85.87
2019-03-24T02:41:56.100Z,85.50
2019-03-24T02:44:27.330Z,85.36
2019-03-24T02:46:58.615Z,85.39
2019-03-24T02:49:29.835Z,85.31
2019-03-24T02:52:01.181Z,85.70
2019-03-24T02:54:32.468Z,85.74
2019-03-24T02:57:04.663Z,85.81
2019-03-24T02:59:35.923Z,86.15
2019-03-24T03:02:07.553Z,86.15
2019-03-24T03:04:38.765Z,85.76
2019-03-24T03:07:10.104Z,85.69
2019-03-24T03:09:41.348Z,85.79
2019-03-24T03:12:12.695Z,85.26
2019-03-24T03:14:44.067Z,85.35
2019-03-24T03:17:15.391Z,85.38
2019-03-24T03:19:46.599Z,85.87
2019-03-24T03:22:18.303Z,85.67
2019-03-24T03:24:49.589Z,85.83
2019-03-24T03:27:20.879Z,86.10
2019-03-24T03:29:52.292Z,85.97
2019-03-24T03:32:23.650Z,85.99
2019-03-24T03:34:54.921Z,85.59
2019-03-24T03:37:26.291Z,85.50
2019-03-24T03:39:58.474Z,85.67
2019-03-24T03:42:30.265Z,85.59
2019-03-24T03:45:01.525Z,85.95
2019-03-24T03:47:32.919Z,85.86
2019-03-24T03:50:04.633Z,85.69
2019-03-24T03:52:36.145Z,85.61
2019-03-24T03:55:08.731Z,85.90
2019-03-24T03:57:40.010Z,85.93
2019-03-24T04:00:12.599Z,86.21
2019-03-24T04:02:43.880Z,86.75
2019-03-24T04:05:15.255Z,87.15
2019-03-24T04:07:46.542Z,87.50
2019-03-24T04:10:17.935Z,88.14
2019-03-24T04:12:49.085Z,88.55
2019-03-24T04:15:20.384Z,89.23
2019-03-24T04:17:51.665Z,89.75
2019-03-24T04:20:23.080Z,90.19
2019-03-24T04:22:54.326Z,90.43
2019-03-24T04:25:25.880Z,90.51
2019-03-24T04:27:57.224Z,90.54
2019-03-24T04:30:28.839Z,90.52
2019-03-24T04:33:00.174Z,90.60
2019-03-24T04:35:31.809Z,90.84
2019-03-24T04:38:03.591Z,90.94
2019-03-24T04:40:35.138Z,91.17
2019-03-24T04:43:06.382Z,91.37
2019-03-24T04:45:37.823Z,91.54
2019-03-24T04:48:09.037Z,91.54
2019-03-24T04:50:40.412Z,91.56
2019-03-24T04:53:11.873Z,91.53
2019-03-24T04:55:44.326Z,91.48
2019-03-24T04:58:18.129Z,91.42
2019-03-24T05:00:49.784Z,91.24
2019-03-24T05:03:21.442Z,91.13
2019-03-24T05:05:53.774Z,90.87
2019-03-24T05:08:25.638Z,90.27
2019-03-24T05:10:56.910Z,89.82
2019-03-24T05:13:28.638Z,89.72
2019-03-24T05:16:00.149Z,89.81
2019-03-24T05:18:31.412Z,89.84
2019-03-24T05:21:02.958Z,89.70
2019-03-24T05:23:34.257Z,89.22
2019-03-24T05:26:06.309Z,89.01
2019-03-24T05:28:37.905Z,89.04
2019-03-24T05:31:09.284Z,89.32
2019-03-24T05:33:40.802Z,88.85
2019-03-24T05:36:12.101Z,88.20
2019-03-24T05:38:43.531Z,87.28
2019-03-24T05:41:15.386Z,85.60
2019-03-24T05:43:46.801Z,83.76
2019-03-24T05:46:18.362Z,80.45
2019-03-24T05:48:49.704Z,78.28
2019-03-24T05:51:21.159Z,75.55
2019-03-24T05:53:52.579Z,74.28
2019-03-24T05:56:23.980Z,71.69
2019-03-24T05:58:55.771Z,67.60
2019-03-24T06:01:27.609Z,63.66
2019-03-24T06:04:00.777Z,61.40
2019-03-24T06:06:31.981Z,59.00
2019-03-24T06:09:04.916Z,59.60
2019-03-24T06:11:36.704Z,60.20
2019-03-24T06:14:08.241Z,58.75
2019-03-24T06:16:39.544Z,55.68
2019-03-24T06:19:11.464Z,54.55
2019-03-24T06:21:43.106Z,55.04
2019-03-24T06:24:14.499Z,55.86
2019-03-24T06:26:45.797Z,56.75
2019-03-24T06:29:17.240Z,60.35
2019-03-24T06:31:48.775Z,60.42
2019-03-24T06:34:20.048Z,60.01
2019-03-24T06:36:51.603Z,58.04
2019-03-24T06:39:22.851Z,55.29
2019-03-24T06:41:54.215Z,55.31
2019-03-24T06:44:25.576Z,53.22
2019-03-24T06:46:56.895Z,51.06
2019-03-24T06:49:28.377Z,48.16
2019-03-24T06:51:59.712Z,48.74
2019-03-24T06:54:31.264Z,53.50
2019-03-24T06:57:02.555Z,56.48
2019-03-24T06:59:34.021Z,54.93
2019-03-24T07:02:05.355Z,54.23
2019-03-24T07:04:36.654Z,55.09
2019-03-24T07:07:08.152Z,57.86
2019-03-24T07:09:39.446Z,58.54
2019-03-24T07:12:10.790Z,58.99
2019-03-24T07:14:42.074Z,59.71
2019-03-24T07:17:13.411Z,59.34
2019-03-24T07:19:44.656Z,59.21
2019-03-24T07:22:16.117Z,59.42
2019-03-24T07:24:47.425Z,58.68
2019-03-24T07:27:19.067Z,57.30
2019-03-24T07:29:50.398Z,56.29
2019-03-24T07:32:21.784Z,56.02
2019-03-24T07:34:53.372Z,58.57
2019-03-24T07:37:24.739Z,57.60
2019-03-24T07:39:56.209Z,55.26
2019-03-24T07:42:27.832Z,49.73
2019-03-24T07:44:59.367Z,48.88
2019-03-24T07:47:30.624Z,47.71
2019-03-24T07:50:01.926Z,47.58
2019-03-24T07:52:33.286Z,44.81
2019-03-24T07:55:05.074Z,46.94
2019-03-24T07:57:36.420Z,46.98
2019-03-24T08:00:09.593Z,40.52
2019-03-24T08:02:51.018Z,35.46
2019-03-24T08:05:18.059Z,32.15
2019-03-24T08:07:49.518Z,36.54
2019-03-24T08:10:20.887Z,36.85
2019-03-24T08:12:52.315Z,34.95
2019-03-24T08:15:23.889Z,30.02
2019-03-24T08:17:55.440Z,30.52
2019-03-24T08:20:26.974Z,31.41
2019-03-24T08:22:59.418Z,30.82
2019-03-24T08:25:30.898Z,31.10
2019-03-24T08:28:02.370Z,29.64
2019-03-24T08:30:37.276Z,29.39
2019-03-24T08:33:09.059Z,28.11
2019-03-24T08:35:40.471Z,28.35
2019-03-24T08:38:11.988Z,26.76
2019-03-24T08:40:43.325Z,31.45
2019-03-24T08:43:14.962Z,32.82
2019-03-24T08:45:46.722Z,34.11
2019-03-24T08:48:18.125Z,34.08
2019-03-24T08:50:49.510Z,38.47
2019-03-24T08:53:23.012Z,36.79
2019-03-24T08:55:54.847Z,31.48
2019-03-24T08:58:26.877Z,29.37
2019-03-24T09:00:58.667Z,28.02
2019-03-24T09:03:32.638Z,31.24
2019-03-24T09:06:04.646Z,32.29
2019-03-24T09:08:36.631Z,30.91
2019-03-24T09:11:08.527Z,27.97
2019-03-24T09:13:40.420Z,27.61
2019-03-24T09:16:12.396Z,30.21
2019-03-24T09:18:52.514Z,32.30
2019-03-24T09:21:19.547Z,32.21
2019-03-24T09:23:50.925Z,33.11
2019-03-24T09:26:23.190Z,35.71
2019-03-24T09:28:55.011Z,31.45
2019-03-24T09:31:27.012Z,33.68
2019-03-24T09:33:59.124Z,33.18
2019-03-24T09:36:30.779Z,34.66
2019-03-24T09:39:02.245Z,35.57
2019-03-24T09:41:33.879Z,35.06
2019-03-24T09:44:05.384Z,34.54
2019-03-24T09:46:37.160Z,34.64
2019-03-24T09:49:08.607Z,29.23
2019-03-24T09:51:40.084Z,28.34
2019-03-24T09:54:11.529Z,24.23
2019-03-24T09:56:43.002Z,23.03
2019-03-24T09:59:14.280Z,21.11
2019-03-24T10:01:45.574Z,22.20
2019-03-24T10:04:17.488Z,25.39
2019-03-24T10:06:49.360Z,29.41
2019-03-24T10:09:20.737Z,31.30
2019-03-24T10:11:52.218Z,34.13
2019-03-24T10:14:23.679Z,35.79
2019-03-24T10:16:55.757Z,33.46
2019-03-24T10:19:27.240Z,29.99
2019-03-24T10:21:59.050Z,26.64
2019-03-24T10:24:30.267Z,24.72
2019-03-24T10:27:01.775Z,21.99
2019-03-24T10:29:33.196Z,21.19
2019-03-24T10:32:04.543Z,20.57
2019-03-24T10:34:35.888Z,19.85
2019-03-24T10:37:07.348Z,21.78
2019-03-24T10:39:41.124Z,21.60
2019-03-24T10:42:12.690Z,21.28
2019-03-24T10:44:44.105Z,22.67
2019-03-24T10:47:15.548Z,20.23
2019-03-24T10:49:46.884Z,21.95
2019-03-24T10:52:18.166Z,20.45
2019-03-24T10:54:49.504Z,20.60
2019-03-24T10:57:21.079Z,20.25
2019-03-24T10:59:52.414Z,20.07
2019-03-24T11:02:23.875Z,21.45
2019-03-24T11:04:55.598Z,21.94
2019-03-24T11:07:27.114Z,21.20
2019-03-24T11:09:58.514Z,24.69
2019-03-24T11:12:29.874Z,23.33
2019-03-24T11:15:01.930Z,22.32
2019-03-24T11:17:33.469Z,23.21
2019-03-24T11:20:05.809Z,22.02
2019-03-24T11:22:37.372Z,23.81
2019-03-24T11:25:11.069Z,26.52
2019-03-24T11:27:42.500Z,28.71
2019-03-24T11:30:16.475Z,31.40
2019-03-24T11:32:47.993Z,30.92
2019-03-24T11:35:19.498Z,31.48
2019-03-24T11:37:50.978Z,30.76
2019-03-24T11:40:22.274Z,35.37
2019-03-24T11:42:53.839Z,33.46
2019-03-24T11:45:25.245Z,35.81
2019-03-24T11:47:56.849Z,34.67
2019-03-24T11:50:28.304Z,33.23
2019-03-24T11:52:59.652Z,34.74
2019-03-24T11:55:31.024Z,35.76
2019-03-24T11:58:06.035Z,34.14
2019-03-24T12:00:40.828Z,35.84
2019-03-24T12:03:13.094Z,34.66
2019-03-24T12:05:44.889Z,34.04
2019-03-24T12:08:17.235Z,32.68
2019-03-24T12:10:48.582Z,32.99
2019-03-24T12:13:20.068Z,33.94
2019-03-24T12:15:51.351Z,34.50
2019-03-24T12:18:22.842Z,36.45
2019-03-24T12:20:54.326Z,39.40
2019-03-24T12:23:25.724Z,37.34
2019-03-24T12:25:57.058Z,34.86
2019-03-24T12:28:28.416Z,35.08
2019-03-24T12:30:59.839Z,35.10
2019-03-24T12:33:31.264Z,35.93
2019-03-24T12:36:02.657Z,37.19
2019-03-24T12:38:34.127Z,37.89
2019-03-24T12:41:05.788Z,34.45
2019-03-24T12:43:37.169Z,37.93
2019-03-24T12:46:08.634Z,36.88
2019-03-24T12:48:39.900Z,38.49
2019-03-24T12:51:11.390Z,37.41
2019-03-24T12:53:42.900Z,39.39
2019-03-24T12:56:14.258Z,35.91
2019-03-24T12:58:45.579Z,39.81
2019-03-24T13:01:17.400Z,35.85
2019-03-24T13:03:48.808Z,36.88
2019-03-24T13:06:20.178Z,37.38
2019-03-24T13:08:51.944Z,37.63
2019-03-24T13:11:23.441Z,38.57
2019-03-24T13:13:54.799Z,36.27
2019-03-24T13:16:26.293Z,37.94
2019-03-24T13:18:57.554Z,38.48
2019-03-24T13:21:29.011Z,38.11
2019-03-24T13:24:00.614Z,37.43
2019-03-24T13:26:32.103Z,36.94
2019-03-24T13:29:03.677Z,37.68
2019-03-24T13:31:35.091Z,39.38
2019-03-24T13:34:06.632Z,39.17
2019-03-24T13:36:37.958Z,38.75
2019-03-24T13:39:09.933Z,38.77
2019-03-24T13:41:41.465Z,38.70
2019-03-24T13:44:12.738Z,38.91
2019-03-24T13:46:44.684Z,37.21
2019-03-24T13:49:16.127Z,40.64
2019-03-24T13:51:47.794Z,39.32
2019-03-24T13:54:19.114Z,39.79
2019-03-24T13:56:50.533Z,40.83
2019-03-24T13:59:22.028Z,42.04
2019-03-24T14:01:53.373Z,40.11
2019-03-24T14:04:24.735Z,40.16
2019-03-24T14:06:56.610Z,40.39
2019-03-24T14:09:28.078Z,41.30
2019-03-24T14:11:59.743Z,40.77
2019-03-24T14:14:31.319Z,40.65
2019-03-24T14:17:02.860Z,40.79
2019-03-24T14:19:34.434Z,39.55
2019-03-24T14:22:06.304Z,40.01
2019-03-24T14:24:37.634Z,40.81
2019-03-24T14:27:08.948Z,41.80
2019-03-24T14:29:40.394Z,41.33
2019-03-24T14:32:11.968Z,40.94
2019-03-24T14:34:43.359Z,41.49
2019-03-24T14:37:14.880Z,41.23
2019-03-24T14:39:46.338Z,42.49
2019-03-24T14:42:17.889Z,41.49
2019-03-24T14:44:49.307Z,41.71
2019-03-24T14:47:20.738Z,42.15
2019-03-24T14:49:52.330Z,42.60
2019-03-24T14:52:23.824Z,43.02
2019-03-24T14:54:55.139Z,42.51
2019-03-24T14:57:26.470Z,42.81
2019-03-24T14:59:58.110Z,43.01
2019-03-24T15:02:29.514Z,43.89
2019-03-24T15:05:00.885Z,43.26
2019-03-24T15:07:32.441Z,42.80
2019-03-24T15:10:04.076Z,42.97
2019-03-24T15:12:35.479Z,43.37
2019-03-24T15:15:07.704Z,44.17
2019-03-24T15:17:39.178Z,45.31
2019-03-24T15:20:10.950Z,43.18
2019-03-24T15:22:42.395Z,43.64
2019-03-24T15:25:14.184Z,44.79
2019-03-24T15:27:45.604Z,43.87
2019-03-24T15:30:17.703Z,43.41
2019-03-24T15:32:49.575Z,43.37
2019-03-24T15:35:20.994Z,43.83
2019-03-24T15:37:52.798Z,43.30
2019-03-24T15:40:24.694Z,44.73
2019-03-24T15:42:56.032Z,45.42
2019-03-24T15:45:27.440Z,44.68
2019-03-24T15:47:58.944Z,45.24
2019-03-24T15:50:30.604Z,45.68
2019-03-24T15:53:02.198Z,45.73
2019-03-24T15:55:34.254Z,44.23
2019-03-24T15:58:05.969Z,45.84
2019-03-24T16:00:47.670Z,45.17
2019-03-24T16:03:19.374Z,45.51
2019-03-24T16:05:50.979Z,43.93
2019-03-24T16:08:22.528Z,45.41
2019-03-24T16:10:53.924Z,45.51
2019-03-24T16:13:25.525Z,45.37
2019-03-24T16:15:58.463Z,45.96
2019-03-24T16:18:30.250Z,47.04
2019-03-24T16:21:01.745Z,46.60
2019-03-24T16:23:33.102Z,47.26
2019-03-24T16:26:06.893Z,47.36
2019-03-24T16:28:38.424Z,47.25
2019-03-24T16:31:11.068Z,47.55
2019-03-24T16:33:42.576Z,46.83
2019-03-24T16:36:14.058Z,47.07
2019-03-24T16:38:49.123Z,47.90
2019-03-24T16:41:19.058Z,47.86
2019-03-24T16:43:50.612Z,47.92
2019-03-24T16:46:21.984Z,48.19
2019-03-24T16:48:53.499Z,48.65
2019-03-24T16:51:25.237Z,48.66
2019-03-24T16:53:56.827Z,48.48
2019-03-24T16:56:30.958Z,49.26
2019-03-24T16:59:02.491Z,49.13
2019-03-24T17:01:35.013Z,50.63
2019-03-24T17:04:10.544Z,50.60
2019-03-24T17:06:44.737Z,49.98
2019-03-24T17:09:17.793Z,49.96
2019-03-24T17:11:57.530Z,49.18
2019-03-24T17:14:29.044Z,50.61
2019-03-24T17:17:03.859Z,53.10
2019-03-24T17:19:36.478Z,56.52
2019-03-24T17:22:11.254Z,59.38
2019-03-24T17:24:42.902Z,60.27
2019-03-24T17:27:17.333Z,60.96
2019-03-24T17:29:51.794Z,62.42
2019-03-24T17:32:23.629Z,63.19
2019-03-24T17:34:57.879Z,62.43
2019-03-24T17:37:30.294Z,63.00
2019-03-24T17:40:02.834Z,63.29
2019-03-24T17:42:35.379Z,63.92
2019-03-24T17:45:08.119Z,64.39
2019-03-24T17:47:40.749Z,64.93
2019-03-24T17:50:16.624Z,64.96
2019-03-24T17:52:52.698Z,65.16
2019-03-24T17:55:30.964Z,65.47
2019-03-24T17:58:02.883Z,66.12
2019-03-24T18:00:46.674Z,66.11
2019-03-24T18:03:18.215Z,65.64
2019-03-24T18:05:50.769Z,65.83
2019-03-24T18:08:23.264Z,66.15
2019-03-24T18:10:58.318Z,66.01
2019-03-24T18:13:32.839Z,65.92
2019-03-24T18:16:04.277Z,66.67
2019-03-24T18:18:39.929Z,66.67
2019-03-24T18:21:13.818Z,66.53
2019-03-24T18:23:50.968Z,66.44
2019-03-24T18:26:22.478Z,66.18
2019-03-24T18:28:54.220Z,66.01
2019-03-24T18:31:28.400Z,66.13
2019-03-24T18:34:01.899Z,66.32
2019-03-24T18:36:36.458Z,66.28
2019-03-24T18:39:11.985Z,66.85
2019-03-24T18:41:45.048Z,67.45
2019-03-24T18:44:18.680Z,67.40
2019-03-24T18:46:52.175Z,67.15
2019-03-24T18:49:24.794Z,67.24
2019-03-24T18:52:00.590Z,66.72
2019-03-24T18:54:34.715Z,67.39
2019-03-24T18:57:07.395Z,70.20
2019-03-24T18:59:49.538Z,70.51
2019-03-24T19:02:24.062Z,70.75
2019-03-24T19:05:00.354Z,70.19
2019-03-24T19:07:33.071Z,71.44
2019-03-24T19:10:10.169Z,70.59
2019-03-24T19:12:43.838Z,70.32
2019-03-24T19:15:20.134Z,70.35
2019-03-24T19:17:53.869Z,69.89
2019-03-24T19:20:25.268Z,69.32
2019-03-24T19:23:01.778Z,69.09
2019-03-24T19:25:42.799Z,68.92
2019-03-24T19:28:15.710Z,69.26
2019-03-24T19:30:49.220Z,68.76
2019-03-24T19:33:23.423Z,69.74
2019-03-24T19:36:01.959Z,69.79
2019-03-24T19:38:34.338Z,69.25
2019-03-24T19:41:09.128Z,69.62
2019-03-24T19:43:42.840Z,69.98
2019-03-24T19:46:14.703Z,69.79
2019-03-24T19:48:47.091Z,69.33
2019-03-24T19:51:21.100Z,69.71
2019-03-24T19:53:57.203Z,68.94
2019-03-24T19:56:28.624Z,69.65
2019-03-24T19:59:02.088Z,69.71
2019-03-24T20:01:39.681Z,68.79
2019-03-24T20:04:12.278Z,69.77
2019-03-24T20:06:47.914Z,69.23
2019-03-24T20:09:19.445Z,69.47
2019-03-24T20:11:54.812Z,69.00
2019-03-24T20:14:30.069Z,69.23
2019-03-24T20:17:01.471Z,69.20
2019-03-24T20:19:36.454Z,69.16
2019-03-24T20:22:14.135Z,69.38
2019-03-24T20:24:51.523Z,69.18
2019-03-24T20:27:30.851Z,68.92
2019-03-24T20:30:07.415Z,69.42
2019-03-24T20:32:43.306Z,69.06
2019-03-24T20:35:18.069Z,69.23
2019-03-24T20:37:51.783Z,69.35
2019-03-24T20:40:23.435Z,69.38
2019-03-24T20:42:55.294Z,70.02
2019-03-24T20:45:26.800Z,70.33
2019-03-24T20:48:02.518Z,71.17
2019-03-24T20:50:40.163Z,71.19
2019-03-24T20:53:18.472Z,71.20
2019-03-24T20:55:50.450Z,71.46
2019-03-24T20:58:23.024Z,72.09
2019-03-24T21:00:54.448Z,73.38
2019-03-24T21:03:25.921Z,73.30
2019-03-24T21:05:57.378Z,74.70
2019-03-24T21:08:31.645Z,74.71
2019-03-24T21:11:04.504Z,75.64
2019-03-24T21:13:35.994Z,76.36
2019-03-24T21:16:09.824Z,76.10
2019-03-24T21:18:41.260Z,75.45
2019-03-24T21:21:12.549Z,75.63
2019-03-24T21:23:43.778Z,75.38
2019-03-24T21:26:15.245Z,75.80
2019-03-24T21:28:46.658Z,76.20
2019-03-24T21:31:18.015Z,76.61
2019-03-24T21:33:49.318Z,77.85
2019-03-24T21:36:22.125Z,77.80
2019-03-24T21:38:53.549Z,77.64
2019-03-24T21:41:24.942Z,77.87
2019-03-24T21:43:56.529Z,77.11
2019-03-24T21:46:27.790Z,77.07
2019-03-24T21:48:59.064Z,76.60
2019-03-24T21:51:30.322Z,76.88
2019-03-24T21:54:02.494Z,77.97
2019-03-24T21:56:34.019Z,76.76
2019-03-24T21:59:05.342Z,76.95
2019-03-24T22:01:36.675Z,75.98
2019-03-24T22:04:08.061Z,75.46
2019-03-24T22:06:40.004Z,75.88
2019-03-24T22:09:11.621Z,75.72
2019-03-24T22:11:42.859Z,75.60
2019-03-24T22:14:15.576Z,75.78
2019-03-24T22:16:46.959Z,76.37
2019-03-24T22:19:18.425Z,76.95
2019-03-24T22:21:49.570Z,77.42
2019-03-24T22:24:20.940Z,79.03
2019-03-24T22:26:52.399Z,79.16
2019-03-24T22:29:23.799Z,79.05
2019-03-24T22:31:55.126Z,78.81
2019-03-24T22:34:26.333Z,79.20
2019-03-24T22:36:57.465Z,78.96
2019-03-24T22:39:29.236Z,79.27
2019-03-24T22:42:00.739Z,79.59
2019-03-24T22:44:31.904Z,80.02
2019-03-24T22:47:03.439Z,80.55
2019-03-24T22:49:34.643Z,81.05
2019-03-24T22:52:07.407Z,82.13
2019-03-24T22:54:39.476Z,82.61
2019-03-24T22:57:10.890Z,82.35
2019-03-24T22:59:42.301Z,82.08
2019-03-24T23:02:13.783Z,82.17
2019-03-24T23:04:45.171Z,81.28
2019-03-24T23:07:16.663Z,81.17
2019-03-24T23:09:48.159Z,80.57
2019-03-24T23:12:19.604Z,80.69
2019-03-24T23:14:50.862Z,79.98
2019-03-24T23:17:22.213Z,79.08
2019-03-24T23:19:53.870Z,79.37
2019-03-24T23:22:25.208Z,79.63
2019-03-24T23:24:56.566Z,79.72
2019-03-24T23:27:27.965Z,79.23
2019-03-24T23:29:59.372Z,78.91
2019-03-24T23:32:30.734Z,78.30
2019-03-24T23:35:02.327Z,78.13
2019-03-24T23:37:33.654Z,77.68
2019-03-24T23:40:05.613Z,79.32
2019-03-24T23:42:36.968Z,81.16
2019-03-24T23:45:11.955Z,81.51
2019-03-24T23:47:43.344Z,81.26
2019-03-24T23:50:15.030Z,81.74
2019-03-24T23:52:46.325Z,81.48
2019-03-24T23:55:18.099Z,81.63
2019-03-24T23:57:49.650Z,81.54
